sensor_id;sensor_type;location;lat;lon;timestamp;noise_LAeq;noise_LA_min;noise_LA_max;noise_LA01;noise_LA95
76338;Laerm;20358;50.272;19.026;2022-12-26T00:00:09;44.70;36.17;63.73;;
76338;Laerm;20358;50.272;19.026;2022-12-26T00:03:21;43.57;35.97;62.15;;
76338;Laerm;20358;50.272;19.026;2022-12-26T00:06:30;43.28;35.41;62.59;;
76338;Laerm;20358;50.272;19.026;2022-12-26T00:09:37;41.34;35.14;58.67;;
76338;Laerm;20358;50.272;19.026;2022-12-26T00:12:43;43.64;35.59;62.10;;
76338;Laerm;20358;50.272;19.026;2022-12-26T00:15:49;41.46;35.23;54.88;;
76338;Laerm;20358;50.272;19.026;2022-12-26T00:18:57;41.48;35.66;53.37;;
76338;Laerm;20358;50.272;19.026;2022-12-26T00:22:05;41.38;35.60;58.91;;
76338;Laerm;20358;50.272;19.026;2022-12-26T00:25:11;40.07;35.22;55.71;;
76338;Laerm;20358;50.272;19.026;2022-12-26T00:28:18;41.92;35.04;59.47;;
76338;Laerm;20358;50.272;19.026;2022-12-26T00:31:26;38.59;35.19;47.85;;
76338;Laerm;20358;50.272;19.026;2022-12-26T00:34:37;43.06;35.67;60.86;;
76338;Laerm;20358;50.272;19.026;2022-12-26T00:37:42;44.13;36.03;62.23;;
76338;Laerm;20358;50.272;19.026;2022-12-26T00:40:49;40.92;35.19;62.80;;
76338;Laerm;20358;50.272;19.026;2022-12-26T00:43:55;40.85;34.92;53.12;;
76338;Laerm;20358;50.272;19.026;2022-12-26T00:47:01;40.15;35.48;53.19;;
76338;Laerm;20358;50.272;19.026;2022-12-26T00:50:09;38.49;35.08;52.19;;
76338;Laerm;20358;50.272;19.026;2022-12-26T00:53:18;39.47;35.40;50.21;;
76338;Laerm;20358;50.272;19.026;2022-12-26T00:56:24;43.71;34.92;64.44;;
76338;Laerm;20358;50.272;19.026;2022-12-26T00:59:30;40.98;35.19;56.72;;
76338;Laerm;20358;50.272;19.026;2022-12-26T01:02:36;41.97;35.52;64.98;;
76338;Laerm;20358;50.272;19.026;2022-12-26T01:05:50;44.89;34.54;65.19;;
76338;Laerm;20358;50.272;19.026;2022-12-26T01:08:57;42.45;35.04;63.76;;
76338;Laerm;20358;50.272;19.026;2022-12-26T01:12:04;39.73;34.80;50.61;;
76338;Laerm;20358;50.272;19.026;2022-12-26T01:15:09;41.35;35.13;55.84;;
76338;Laerm;20358;50.272;19.026;2022-12-26T01:18:16;40.58;35.17;56.98;;
76338;Laerm;20358;50.272;19.026;2022-12-26T01:21:25;41.42;35.01;54.32;;
76338;Laerm;20358;50.272;19.026;2022-12-26T01:24:31;42.80;35.13;65.79;;
76338;Laerm;20358;50.272;19.026;2022-12-26T01:27:37;38.92;34.75;49.28;;
76338;Laerm;20358;50.272;19.026;2022-12-26T01:30:43;40.95;35.15;60.47;;
76338;Laerm;20358;50.272;19.026;2022-12-26T01:33:49;40.10;34.78;55.65;;
76338;Laerm;20358;50.272;19.026;2022-12-26T01:36:58;38.37;34.48;54.14;;
76338;Laerm;20358;50.272;19.026;2022-12-26T01:40:05;42.54;35.08;58.50;;
76338;Laerm;20358;50.272;19.026;2022-12-26T01:43:14;42.28;35.30;64.86;;
76338;Laerm;20358;50.272;19.026;2022-12-26T01:46:26;42.77;34.99;62.45;;
76338;Laerm;20358;50.272;19.026;2022-12-26T01:49:40;38.95;34.97;50.96;;
76338;Laerm;20358;50.272;19.026;2022-12-26T01:52:52;38.61;34.91;54.71;;
76338;Laerm;20358;50.272;19.026;2022-12-26T01:56:07;42.53;34.93;60.03;;
76338;Laerm;20358;50.272;19.026;2022-12-26T01:59:19;36.81;34.73;39.16;;
76338;Laerm;20358;50.272;19.026;2022-12-26T02:02:29;41.70;34.93;58.84;;
76338;Laerm;20358;50.272;19.026;2022-12-26T02:05:58;39.65;34.70;49.65;;
76338;Laerm;20358;50.272;19.026;2022-12-26T02:09:07;41.02;35.07;54.29;;
76338;Laerm;20358;50.272;19.026;2022-12-26T02:12:20;42.55;35.20;62.42;;
76338;Laerm;20358;50.272;19.026;2022-12-26T02:15:41;43.16;35.38;62.73;;
76338;Laerm;20358;50.272;19.026;2022-12-26T02:18:46;42.28;35.52;58.22;;
76338;Laerm;20358;50.272;19.026;2022-12-26T02:22:40;41.63;34.89;58.03;;
76338;Laerm;20358;50.272;19.026;2022-12-26T02:26:33;40.24;35.63;51.04;;
76338;Laerm;20358;50.272;19.026;2022-12-26T02:30:03;40.72;34.84;57.95;;
76338;Laerm;20358;50.272;19.026;2022-12-26T02:33:39;37.38;35.15;39.71;;
76338;Laerm;20358;50.272;19.026;2022-12-26T02:37:12;43.43;34.91;63.25;;
76338;Laerm;20358;50.272;19.026;2022-12-26T02:40:48;39.18;34.92;54.34;;
76338;Laerm;20358;50.272;19.026;2022-12-26T02:44:14;36.84;34.49;40.72;;
76338;Laerm;20358;50.272;19.026;2022-12-26T02:47:53;40.24;35.24;51.58;;
76338;Laerm;20358;50.272;19.026;2022-12-26T02:51:22;41.53;35.54;56.02;;
76338;Laerm;20358;50.272;19.026;2022-12-26T02:55:02;43.76;35.28;68.19;;
76338;Laerm;20358;50.272;19.026;2022-12-26T02:58:51;43.31;34.93;61.69;;
76338;Laerm;20358;50.272;19.026;2022-12-26T03:02:29;43.29;34.93;66.98;;
76338;Laerm;20358;50.272;19.026;2022-12-26T03:05:59;42.60;35.38;62.63;;
76338;Laerm;20358;50.272;19.026;2022-12-26T03:09:31;39.94;35.17;55.81;;
76338;Laerm;20358;50.272;19.026;2022-12-26T03:13:02;38.82;35.16;53.02;;
76338;Laerm;20358;50.272;19.026;2022-12-26T03:16:19;39.61;34.76;61.21;;
76338;Laerm;20358;50.272;19.026;2022-12-26T03:19:48;42.13;35.55;59.41;;
76338;Laerm;20358;50.272;19.026;2022-12-26T03:23:10;42.42;35.87;57.81;;
76338;Laerm;20358;50.272;19.026;2022-12-26T03:26:30;43.50;35.62;61.27;;
76338;Laerm;20358;50.272;19.026;2022-12-26T03:29:43;41.65;35.31;56.56;;
76338;Laerm;20358;50.272;19.026;2022-12-26T03:33:01;44.28;36.16;58.88;;
76338;Laerm;20358;50.272;19.026;2022-12-26T03:36:19;41.17;36.11;61.06;;
76338;Laerm;20358;50.272;19.026;2022-12-26T03:39:41;40.71;35.98;62.99;;
76338;Laerm;20358;50.272;19.026;2022-12-26T03:43:28;41.66;35.64;64.59;;
76338;Laerm;20358;50.272;19.026;2022-12-26T03:47:12;43.45;36.23;60.70;;
76338;Laerm;20358;50.272;19.026;2022-12-26T03:50:46;43.09;35.92;59.22;;
76338;Laerm;20358;50.272;19.026;2022-12-26T03:54:15;39.89;35.86;59.25;;
76338;Laerm;20358;50.272;19.026;2022-12-26T03:57:52;41.60;36.27;60.50;;
76338;Laerm;20358;50.272;19.026;2022-12-26T04:01:26;42.38;35.91;57.39;;
76338;Laerm;20358;50.272;19.026;2022-12-26T04:04:57;43.96;36.61;61.85;;
76338;Laerm;20358;50.272;19.026;2022-12-26T04:08:29;43.52;36.24;66.37;;
76338;Laerm;20358;50.272;19.026;2022-12-26T04:11:58;42.17;36.47;54.81;;
76338;Laerm;20358;50.272;19.026;2022-12-26T04:15:31;45.20;36.24;62.81;;
76338;Laerm;20358;50.272;19.026;2022-12-26T04:19:25;42.19;35.78;62.23;;
76338;Laerm;20358;50.272;19.026;2022-12-26T04:22:47;45.02;36.42;62.85;;
76338;Laerm;20358;50.272;19.026;2022-12-26T04:26:20;44.04;36.74;61.54;;
76338;Laerm;20358;50.272;19.026;2022-12-26T04:29:45;43.76;36.78;57.16;;
76338;Laerm;20358;50.272;19.026;2022-12-26T04:33:16;44.65;36.55;64.45;;
76338;Laerm;20358;50.272;19.026;2022-12-26T04:36:51;44.74;36.50;62.27;;
76338;Laerm;20358;50.272;19.026;2022-12-26T04:40:22;46.60;36.28;68.66;;
76338;Laerm;20358;50.272;19.026;2022-12-26T04:43:51;47.57;37.07;64.64;;
76338;Laerm;20358;50.272;19.026;2022-12-26T04:47:10;46.87;37.92;61.70;;
76338;Laerm;20358;50.272;19.026;2022-12-26T04:50:17;43.59;37.30;61.44;;
76338;Laerm;20358;50.272;19.026;2022-12-26T04:53:22;43.59;36.83;55.39;;
76338;Laerm;20358;50.272;19.026;2022-12-26T04:56:29;46.35;37.24;69.86;;
76338;Laerm;20358;50.272;19.026;2022-12-26T04:59:34;45.73;37.30;62.85;;
76338;Laerm;20358;50.272;19.026;2022-12-26T05:02:40;45.27;37.07;59.70;;
76338;Laerm;20358;50.272;19.026;2022-12-26T05:06:02;46.81;38.29;64.36;;
76338;Laerm;20358;50.272;19.026;2022-12-26T05:09:26;45.69;38.28;61.70;;
76338;Laerm;20358;50.272;19.026;2022-12-26T05:12:38;44.49;36.31;62.42;;
76338;Laerm;20358;50.272;19.026;2022-12-26T05:15:44;43.25;36.29;58.32;;
76338;Laerm;20358;50.272;19.026;2022-12-26T05:19:10;41.13;36.02;51.36;;
76338;Laerm;20358;50.272;19.026;2022-12-26T05:22:37;44.32;36.33;62.56;;
76338;Laerm;20358;50.272;19.026;2022-12-26T05:26:03;46.17;36.62;67.88;;
76338;Laerm;20358;50.272;19.026;2022-12-26T05:29:25;46.45;37.53;66.01;;
76338;Laerm;20358;50.272;19.026;2022-12-26T05:32:31;45.55;35.87;61.87;;
76338;Laerm;20358;50.272;19.026;2022-12-26T05:35:53;40.87;36.21;53.13;;
76338;Laerm;20358;50.272;19.026;2022-12-26T05:38:59;45.36;37.64;57.32;;
76338;Laerm;20358;50.272;19.026;2022-12-26T05:42:08;43.85;37.01;58.82;;
76338;Laerm;20358;50.272;19.026;2022-12-26T05:45:13;44.50;36.61;57.24;;
76338;Laerm;20358;50.272;19.026;2022-12-26T05:48:20;55.76;38.46;73.62;;
76338;Laerm;20358;50.272;19.026;2022-12-26T05:51:25;56.96;37.24;78.13;;
76338;Laerm;20358;50.272;19.026;2022-12-26T05:54:32;43.18;36.94;54.71;;
76338;Laerm;20358;50.272;19.026;2022-12-26T05:57:40;45.60;36.58;64.08;;
76338;Laerm;20358;50.272;19.026;2022-12-26T06:00:47;42.91;36.92;61.70;;
76338;Laerm;20358;50.272;19.026;2022-12-26T06:03:57;45.84;36.96;58.97;;
76338;Laerm;20358;50.272;19.026;2022-12-26T06:07:05;44.00;37.13;57.77;;
76338;Laerm;20358;50.272;19.026;2022-12-26T06:10:12;43.10;36.31;61.90;;
76338;Laerm;20358;50.272;19.026;2022-12-26T06:13:22;43.30;36.63;57.85;;
76338;Laerm;20358;50.272;19.026;2022-12-26T06:16:28;44.08;36.61;56.87;;
76338;Laerm;20358;50.272;19.026;2022-12-26T06:19:34;43.44;36.96;60.49;;
76338;Laerm;20358;50.272;19.026;2022-12-26T06:22:47;43.76;36.59;60.88;;
76338;Laerm;20358;50.272;19.026;2022-12-26T06:25:55;48.06;37.85;64.98;;
76338;Laerm;20358;50.272;19.026;2022-12-26T06:29:03;46.62;37.94;67.26;;
76338;Laerm;20358;50.272;19.026;2022-12-26T06:32:09;44.46;37.58;63.27;;
76338;Laerm;20358;50.272;19.026;2022-12-26T06:35:15;46.55;37.86;64.77;;
76338;Laerm;20358;50.272;19.026;2022-12-26T06:38:21;43.17;36.76;57.94;;
76338;Laerm;20358;50.272;19.026;2022-12-26T06:41:26;46.48;37.90;64.41;;
76338;Laerm;20358;50.272;19.026;2022-12-26T06:44:36;52.70;37.17;80.58;;
76338;Laerm;20358;50.272;19.026;2022-12-26T06:47:41;48.70;38.03;69.86;;
76338;Laerm;20358;50.272;19.026;2022-12-26T06:50:48;53.81;37.98;79.30;;
76338;Laerm;20358;50.272;19.026;2022-12-26T06:53:55;49.65;38.54;73.51;;
76338;Laerm;20358;50.272;19.026;2022-12-26T06:57:04;45.94;38.67;62.11;;
76338;Laerm;20358;50.272;19.026;2022-12-26T07:00:14;44.09;36.92;62.66;;
76338;Laerm;20358;50.272;19.026;2022-12-26T07:03:21;47.95;38.48;67.99;;
76338;Laerm;20358;50.272;19.026;2022-12-26T07:06:31;46.57;38.13;62.66;;
76338;Laerm;20358;50.272;19.026;2022-12-26T07:09:38;45.58;38.12;62.50;;
76338;Laerm;20358;50.272;19.026;2022-12-26T07:12:43;46.59;37.25;62.76;;
76338;Laerm;20358;50.272;19.026;2022-12-26T07:15:52;46.84;37.72;61.52;;
76338;Laerm;20358;50.272;19.026;2022-12-26T07:18:58;46.85;37.74;66.15;;
76338;Laerm;20358;50.272;19.026;2022-12-26T07:22:04;47.47;37.71;70.01;;
76338;Laerm;20358;50.272;19.026;2022-12-26T07:25:09;52.32;37.76;72.59;;
76338;Laerm;20358;50.272;19.026;2022-12-26T07:28:16;47.65;38.67;68.59;;
76338;Laerm;20358;50.272;19.026;2022-12-26T07:31:25;45.16;37.32;65.88;;
76338;Laerm;20358;50.272;19.026;2022-12-26T07:34:32;48.79;39.11;67.10;;
76338;Laerm;20358;50.272;19.026;2022-12-26T07:37:37;46.25;37.91;66.21;;
76338;Laerm;20358;50.272;19.026;2022-12-26T07:40:44;56.57;38.06;84.55;;
76338;Laerm;20358;50.272;19.026;2022-12-26T07:43:50;54.01;40.87;77.40;;
76338;Laerm;20358;50.272;19.026;2022-12-26T07:47:00;52.24;39.72;73.43;;
76338;Laerm;20358;50.272;19.026;2022-12-26T07:50:07;52.14;38.37;78.04;;
76338;Laerm;20358;50.272;19.026;2022-12-26T07:53:14;53.13;39.26;81.92;;
76338;Laerm;20358;50.272;19.026;2022-12-26T07:56:22;51.24;38.53;71.29;;
76338;Laerm;20358;50.272;19.026;2022-12-26T07:59:28;46.04;38.35;63.88;;
76338;Laerm;20358;50.272;19.026;2022-12-26T08:02:36;45.23;37.47;61.57;;
76338;Laerm;20358;50.272;19.026;2022-12-26T08:05:44;46.46;37.45;63.49;;
76338;Laerm;20358;50.272;19.026;2022-12-26T08:08:50;50.38;39.52;71.70;;
76338;Laerm;20358;50.272;19.026;2022-12-26T08:11:57;45.39;39.63;61.32;;
76338;Laerm;20358;50.272;19.026;2022-12-26T08:15:03;51.29;40.11;77.80;;
76338;Laerm;20358;50.272;19.026;2022-12-26T08:18:12;52.49;39.42;76.08;;
76338;Laerm;20358;50.272;19.026;2022-12-26T08:21:18;46.90;39.27;62.83;;
76338;Laerm;20358;50.272;19.026;2022-12-26T08:24:25;49.55;38.96;68.45;;
76338;Laerm;20358;50.272;19.026;2022-12-26T08:27:30;50.43;39.99;71.49;;
76338;Laerm;20358;50.272;19.026;2022-12-26T08:30:38;47.67;39.87;64.45;;
76338;Laerm;20358;50.272;19.026;2022-12-26T08:33:48;47.92;39.45;64.49;;
76338;Laerm;20358;50.272;19.026;2022-12-26T08:36:54;47.03;38.40;66.17;;
76338;Laerm;20358;50.272;19.026;2022-12-26T08:39:59;46.19;37.78;58.62;;
76338;Laerm;20358;50.272;19.026;2022-12-26T08:43:07;47.73;38.76;68.04;;
76338;Laerm;20358;50.272;19.026;2022-12-26T08:46:32;48.39;38.92;66.96;;
76338;Laerm;20358;50.272;19.026;2022-12-26T08:49:41;45.67;38.31;56.04;;
76338;Laerm;20358;50.272;19.026;2022-12-26T08:52:47;49.70;40.70;67.88;;
76338;Laerm;20358;50.272;19.026;2022-12-26T08:55:54;48.36;40.05;64.37;;
76338;Laerm;20358;50.272;19.026;2022-12-26T08:59:00;47.39;39.47;58.17;;
76338;Laerm;20358;50.272;19.026;2022-12-26T09:02:10;48.01;39.61;58.10;;
76338;Laerm;20358;50.272;19.026;2022-12-26T09:05:18;48.00;39.86;65.17;;
76338;Laerm;20358;50.272;19.026;2022-12-26T09:08:25;49.13;40.15;61.35;;
76338;Laerm;20358;50.272;19.026;2022-12-26T09:11:32;49.19;39.72;68.36;;
76338;Laerm;20358;50.272;19.026;2022-12-26T09:14:38;50.20;40.80;60.84;;
76338;Laerm;20358;50.272;19.026;2022-12-26T09:17:43;50.96;41.06;66.46;;
76338;Laerm;20358;50.272;19.026;2022-12-26T09:20:52;48.32;40.26;60.88;;
76338;Laerm;20358;50.272;19.026;2022-12-26T09:24:00;50.60;40.13;69.14;;
76338;Laerm;20358;50.272;19.026;2022-12-26T09:27:08;50.21;40.26;62.93;;
76338;Laerm;20358;50.272;19.026;2022-12-26T09:30:15;47.68;39.83;64.42;;
76338;Laerm;20358;50.272;19.026;2022-12-26T09:33:23;48.26;39.81;60.66;;
76338;Laerm;20358;50.272;19.026;2022-12-26T09:36:35;48.69;40.25;67.20;;
76338;Laerm;20358;50.272;19.026;2022-12-26T09:39:43;48.64;39.75;60.65;;
76338;Laerm;20358;50.272;19.026;2022-12-26T09:43:03;50.80;40.82;73.37;;
76338;Laerm;20358;50.272;19.026;2022-12-26T09:46:26;54.74;40.20;81.28;;
76338;Laerm;20358;50.272;19.026;2022-12-26T09:49:44;50.78;41.14;64.87;;
76338;Laerm;20358;50.272;19.026;2022-12-26T09:53:03;49.54;41.06;64.21;;
76338;Laerm;20358;50.272;19.026;2022-12-26T09:56:15;50.78;41.06;67.87;;
76338;Laerm;20358;50.272;19.026;2022-12-26T09:59:52;51.04;43.45;64.83;;
76338;Laerm;20358;50.272;19.026;2022-12-26T10:02:59;54.34;44.05;69.82;;
76338;Laerm;20358;50.272;19.026;2022-12-26T10:06:15;59.90;40.77;84.23;;
76338;Laerm;20358;50.272;19.026;2022-12-26T10:13:19;50.99;41.92;67.01;;
76338;Laerm;20358;50.272;19.026;2022-12-26T10:16:48;50.17;40.80;63.39;;
76338;Laerm;20358;50.272;19.026;2022-12-26T10:20:14;48.36;39.95;66.93;;
76338;Laerm;20358;50.272;19.026;2022-12-26T10:23:31;50.49;39.53;64.32;;
76338;Laerm;20358;50.272;19.026;2022-12-26T10:26:47;52.23;40.15;68.16;;
76338;Laerm;20358;50.272;19.026;2022-12-26T10:30:02;49.67;40.94;62.66;;
76338;Laerm;20358;50.272;19.026;2022-12-26T10:33:21;51.76;41.06;69.61;;
76338;Laerm;20358;50.272;19.026;2022-12-26T10:36:39;52.52;42.17;77.22;;
76338;Laerm;20358;50.272;19.026;2022-12-26T10:39:55;49.66;41.20;63.52;;
76338;Laerm;20358;50.272;19.026;2022-12-26T10:43:27;59.16;42.87;78.53;;
76338;Laerm;20358;50.272;19.026;2022-12-26T10:47:16;49.63;41.18;67.10;;
76338;Laerm;20358;50.272;19.026;2022-12-26T10:50:27;50.64;42.52;62.00;;
76338;Laerm;20358;50.272;19.026;2022-12-26T10:53:42;51.03;41.79;61.72;;
76338;Laerm;20358;50.272;19.026;2022-12-26T10:56:50;51.46;41.74;68.64;;
76338;Laerm;20358;50.272;19.026;2022-12-26T11:00:06;50.10;41.52;66.38;;
76338;Laerm;20358;50.272;19.026;2022-12-26T11:03:20;51.81;41.22;63.28;;
76338;Laerm;20358;50.272;19.026;2022-12-26T11:06:32;51.11;41.19;61.29;;
76338;Laerm;20358;50.272;19.026;2022-12-26T11:09:44;51.80;41.62;64.59;;
76338;Laerm;20358;50.272;19.026;2022-12-26T11:12:53;50.31;41.54;67.67;;
76338;Laerm;20358;50.272;19.026;2022-12-26T11:16:05;51.17;42.57;62.14;;
76338;Laerm;20358;50.272;19.026;2022-12-26T11:19:27;50.73;42.03;64.63;;
76338;Laerm;20358;50.272;19.026;2022-12-26T11:22:32;50.84;41.90;61.74;;
76338;Laerm;20358;50.272;19.026;2022-12-26T11:25:49;51.01;41.56;66.49;;
76338;Laerm;20358;50.272;19.026;2022-12-26T11:29:06;49.36;41.08;63.49;;
76338;Laerm;20358;50.272;19.026;2022-12-26T11:32:19;52.34;43.08;66.98;;
76338;Laerm;20358;50.272;19.026;2022-12-26T11:35:27;49.60;40.81;62.65;;
76338;Laerm;20358;50.272;19.026;2022-12-26T11:38:53;51.16;41.76;62.63;;
76338;Laerm;20358;50.272;19.026;2022-12-26T11:42:00;50.52;42.79;62.39;;
76338;Laerm;20358;50.272;19.026;2022-12-26T11:45:22;50.61;42.08;64.66;;
76338;Laerm;20358;50.272;19.026;2022-12-26T11:48:31;52.47;42.26;62.66;;
76338;Laerm;20358;50.272;19.026;2022-12-26T11:51:42;51.54;41.95;67.87;;
76338;Laerm;20358;50.272;19.026;2022-12-26T11:54:53;50.64;41.48;60.77;;
76338;Laerm;20358;50.272;19.026;2022-12-26T11:58:16;51.81;41.67;64.25;;
76338;Laerm;20358;50.272;19.026;2022-12-26T12:01:22;51.04;41.74;60.08;;
76338;Laerm;20358;50.272;19.026;2022-12-26T12:04:31;51.95;41.49;65.13;;
76338;Laerm;20358;50.272;19.026;2022-12-26T12:08:17;49.71;40.64;62.22;;
76338;Laerm;20358;50.272;19.026;2022-12-26T12:11:44;50.64;42.32;62.80;;
76338;Laerm;20358;50.272;19.026;2022-12-26T12:15:02;51.75;44.03;66.67;;
76338;Laerm;20358;50.272;19.026;2022-12-26T12:18:21;52.85;41.79;70.44;;
76338;Laerm;20358;50.272;19.026;2022-12-26T12:21:43;52.72;41.38;78.78;;
76338;Laerm;20358;50.272;19.026;2022-12-26T12:25:21;50.94;41.72;65.32;;
76338;Laerm;20358;50.272;19.026;2022-12-26T12:29:07;52.52;42.61;70.04;;
76338;Laerm;20358;50.272;19.026;2022-12-26T12:32:28;54.28;43.67;68.68;;
76338;Laerm;20358;50.272;19.026;2022-12-26T12:35:59;56.67;42.81;80.88;;
76338;Laerm;20358;50.272;19.026;2022-12-26T12:39:20;57.24;42.33;84.61;;
76338;Laerm;20358;50.272;19.026;2022-12-26T12:42:49;55.48;41.78;76.35;;
76338;Laerm;20358;50.272;19.026;2022-12-26T12:46:14;58.46;44.21;84.54;;
76338;Laerm;20358;50.272;19.026;2022-12-26T12:49:46;53.22;43.18;68.32;;
76338;Laerm;20358;50.272;19.026;2022-12-26T12:53:15;52.82;43.12;66.35;;
76338;Laerm;20358;50.272;19.026;2022-12-26T12:56:38;53.69;43.43;74.34;;
76338;Laerm;20358;50.272;19.026;2022-12-26T13:00:03;53.34;43.84;66.85;;
76338;Laerm;20358;50.272;19.026;2022-12-26T13:03:27;52.67;41.65;72.20;;
76338;Laerm;20358;50.272;19.026;2022-12-26T13:06:46;54.13;42.20;66.11;;
76338;Laerm;20358;50.272;19.026;2022-12-26T13:09:59;53.97;46.42;72.18;;
76338;Laerm;20358;50.272;19.026;2022-12-26T13:13:21;52.09;42.15;67.10;;
76338;Laerm;20358;50.272;19.026;2022-12-26T13:16:36;53.00;42.56;65.50;;
76338;Laerm;20358;50.272;19.026;2022-12-26T13:19:57;51.41;41.20;69.14;;
76338;Laerm;20358;50.272;19.026;2022-12-26T13:23:17;53.33;42.03;69.51;;
76338;Laerm;20358;50.272;19.026;2022-12-26T13:26:50;52.06;41.55;63.94;;
76338;Laerm;20358;50.272;19.026;2022-12-26T13:29:59;52.10;41.64;69.37;;
76338;Laerm;20358;50.272;19.026;2022-12-26T13:33:13;51.73;40.72;65.96;;
76338;Laerm;20358;50.272;19.026;2022-12-26T13:36:40;52.30;43.00;64.21;;
76338;Laerm;20358;50.272;19.026;2022-12-26T13:39:52;53.19;44.35;65.73;;
76338;Laerm;20358;50.272;19.026;2022-12-26T13:43:08;52.27;42.78;65.91;;
76338;Laerm;20358;50.272;19.026;2022-12-26T13:46:58;53.18;42.36;77.99;;
76338;Laerm;20358;50.272;19.026;2022-12-26T13:50:47;50.93;42.38;69.47;;
76338;Laerm;20358;50.272;19.026;2022-12-26T13:54:09;52.44;42.52;67.57;;
76338;Laerm;20358;50.272;19.026;2022-12-26T13:57:37;51.78;42.39;63.87;;
76338;Laerm;20358;50.272;19.026;2022-12-26T14:00:48;52.03;41.64;69.95;;
76338;Laerm;20358;50.272;19.026;2022-12-26T14:04:39;51.03;41.74;66.68;;
76338;Laerm;20358;50.272;19.026;2022-12-26T14:08:01;52.10;41.54;64.86;;
76338;Laerm;20358;50.272;19.026;2022-12-26T14:11:33;50.09;41.33;64.02;;
76338;Laerm;20358;50.272;19.026;2022-12-26T14:15:14;51.75;40.73;68.64;;
76338;Laerm;20358;50.272;19.026;2022-12-26T14:18:40;52.01;41.88;69.29;;
76338;Laerm;20358;50.272;19.026;2022-12-26T14:22:05;52.49;41.50;73.84;;
76338;Laerm;20358;50.272;19.026;2022-12-26T14:25:24;51.45;42.65;63.12;;
76338;Laerm;20358;50.272;19.026;2022-12-26T14:28:55;50.45;42.51;64.96;;
76338;Laerm;20358;50.272;19.026;2022-12-26T14:32:23;51.06;42.84;64.47;;
76338;Laerm;20358;50.272;19.026;2022-12-26T14:35:43;52.04;44.17;66.54;;
76338;Laerm;20358;50.272;19.026;2022-12-26T14:39:08;51.56;43.03;68.19;;
76338;Laerm;20358;50.272;19.026;2022-12-26T14:42:21;51.27;43.33;71.33;;
76338;Laerm;20358;50.272;19.026;2022-12-26T14:45:47;52.66;43.31;69.74;;
76338;Laerm;20358;50.272;19.026;2022-12-26T14:48:58;52.58;43.79;67.97;;
76338;Laerm;20358;50.272;19.026;2022-12-26T14:52:37;53.95;43.35;69.29;;
76338;Laerm;20358;50.272;19.026;2022-12-26T14:55:53;52.88;42.18;68.81;;
76338;Laerm;20358;50.272;19.026;2022-12-26T14:59:26;52.46;43.73;65.50;;
76338;Laerm;20358;50.272;19.026;2022-12-26T15:02:33;51.47;41.35;63.41;;
76338;Laerm;20358;50.272;19.026;2022-12-26T15:05:46;53.06;41.83;67.58;;
76338;Laerm;20358;50.272;19.026;2022-12-26T15:09:23;52.55;42.12;64.84;;
76338;Laerm;20358;50.272;19.026;2022-12-26T15:13:27;51.43;40.61;64.94;;
76338;Laerm;20358;50.272;19.026;2022-12-26T15:16:54;51.32;42.67;67.59;;
76338;Laerm;20358;50.272;19.026;2022-12-26T15:20:43;51.19;41.47;67.05;;
76338;Laerm;20358;50.272;19.026;2022-12-26T15:29:02;52.68;42.85;69.91;;
76338;Laerm;20358;50.272;19.026;2022-12-26T15:32:27;51.27;41.21;63.72;;
76338;Laerm;20358;50.272;19.026;2022-12-26T15:35:49;51.84;42.86;66.26;;
76338;Laerm;20358;50.272;19.026;2022-12-26T15:39:26;51.97;43.63;67.13;;
76338;Laerm;20358;50.272;19.026;2022-12-26T15:42:54;52.30;41.07;64.54;;
76338;Laerm;20358;50.272;19.026;2022-12-26T15:46:20;52.12;41.75;70.84;;
76338;Laerm;20358;50.272;19.026;2022-12-26T15:49:49;51.91;43.07;70.37;;
76338;Laerm;20358;50.272;19.026;2022-12-26T15:53:21;52.52;44.36;72.26;;
76338;Laerm;20358;50.272;19.026;2022-12-26T15:57:06;53.05;43.05;68.84;;
76338;Laerm;20358;50.272;19.026;2022-12-26T16:00:21;51.26;42.21;68.19;;
76338;Laerm;20358;50.272;19.026;2022-12-26T16:03:40;52.55;42.43;67.06;;
76338;Laerm;20358;50.272;19.026;2022-12-26T16:07:16;52.01;43.18;71.63;;
76338;Laerm;20358;50.272;19.026;2022-12-26T16:10:31;51.82;44.82;68.45;;
76338;Laerm;20358;50.272;19.026;2022-12-26T16:13:49;52.08;43.39;69.46;;
76338;Laerm;20358;50.272;19.026;2022-12-26T16:17:17;53.50;45.10;69.84;;
76338;Laerm;20358;50.272;19.026;2022-12-26T16:20:31;52.17;44.78;69.09;;
76338;Laerm;20358;50.272;19.026;2022-12-26T16:23:54;54.32;44.42;76.04;;
76338;Laerm;20358;50.272;19.026;2022-12-26T16:27:07;53.92;46.26;74.96;;
76338;Laerm;20358;50.272;19.026;2022-12-26T16:30:20;54.08;46.40;73.18;;
76338;Laerm;20358;50.272;19.026;2022-12-26T16:33:34;54.12;46.39;71.42;;
76338;Laerm;20358;50.272;19.026;2022-12-26T16:36:49;53.12;43.44;69.12;;
76338;Laerm;20358;50.272;19.026;2022-12-26T16:40:18;53.46;43.27;69.68;;
76338;Laerm;20358;50.272;19.026;2022-12-26T16:43:28;54.68;43.68;75.35;;
76338;Laerm;20358;50.272;19.026;2022-12-26T16:46:37;52.39;44.12;66.84;;
76338;Laerm;20358;50.272;19.026;2022-12-26T16:49:43;52.35;43.82;68.43;;
76338;Laerm;20358;50.272;19.026;2022-12-26T16:53:09;52.08;43.54;68.63;;
76338;Laerm;20358;50.272;19.026;2022-12-26T16:56:31;52.07;41.22;66.63;;
76338;Laerm;20358;50.272;19.026;2022-12-26T16:59:52;52.66;43.68;68.14;;
76338;Laerm;20358;50.272;19.026;2022-12-26T17:03:02;52.83;42.39;65.50;;
76338;Laerm;20358;50.272;19.026;2022-12-26T17:06:22;54.66;41.73;71.38;;
76338;Laerm;20358;50.272;19.026;2022-12-26T17:09:42;53.15;42.93;69.97;;
76338;Laerm;20358;50.272;19.026;2022-12-26T17:12:56;51.58;42.02;68.52;;
76338;Laerm;20358;50.272;19.026;2022-12-26T17:16:07;50.64;41.86;66.12;;
76338;Laerm;20358;50.272;19.026;2022-12-26T17:19:19;51.62;43.66;64.00;;
76338;Laerm;20358;50.272;19.026;2022-12-26T17:22:30;52.19;40.93;76.75;;
76338;Laerm;20358;50.272;19.026;2022-12-26T17:25:40;52.51;41.11;73.12;;
76338;Laerm;20358;50.272;19.026;2022-12-26T17:28:52;51.35;40.95;65.71;;
76338;Laerm;20358;50.272;19.026;2022-12-26T17:31:59;51.78;40.86;67.61;;
76338;Laerm;20358;50.272;19.026;2022-12-26T17:35:12;51.74;41.66;63.84;;
76338;Laerm;20358;50.272;19.026;2022-12-26T17:38:24;51.00;40.44;64.68;;
76338;Laerm;20358;50.272;19.026;2022-12-26T17:41:33;49.72;41.12;62.03;;
76338;Laerm;20358;50.272;19.026;2022-12-26T17:44:42;51.41;41.07;65.13;;
76338;Laerm;20358;50.272;19.026;2022-12-26T17:47:50;51.42;41.33;65.84;;
76338;Laerm;20358;50.272;19.026;2022-12-26T17:51:01;51.38;40.29;67.20;;
76338;Laerm;20358;50.272;19.026;2022-12-26T17:54:08;52.80;40.78;68.87;;
76338;Laerm;20358;50.272;19.026;2022-12-26T17:57:21;52.14;41.56;65.80;;
76338;Laerm;20358;50.272;19.026;2022-12-26T18:00:28;51.96;41.61;62.96;;
76338;Laerm;20358;50.272;19.026;2022-12-26T18:03:34;52.93;41.50;66.91;;
76338;Laerm;20358;50.272;19.026;2022-12-26T18:06:40;51.89;41.54;64.22;;
76338;Laerm;20358;50.272;19.026;2022-12-26T18:09:47;51.70;42.71;67.49;;
76338;Laerm;20358;50.272;19.026;2022-12-26T18:12:57;51.70;43.07;67.93;;